KSDM/SDM METAR and TAF weather

Enter ICAO airport designator
Station Type Date Time Source
KSDM METAR 2019/10/23 12:53 UTC NOAA

KSDM 231253Z AUTO 14007KT 10SM CLR 16/M01 A2992 RMK AO2 SLP126 T01611006


Station Type Date Time Source
KSDM Decoded METAR 2019/10/23 12:53 UTC NOAA

San Diego, Brown Field Municipal Airport, CA, United States (KSDM) 32-34-31N 116-59-35W 159M
Oct 23, 2019 - 08:53 AM EDT / 2019.10.23 1253 UTC
Wind: from the SE (140 degrees) at 8 MPH (7 KT):0
Visibility: 10 mile(s):0
Sky conditions: clear
Temperature: 61.0 F (16.1 C)
Dew Point: 30.9 F (-0.6 C)
Relative Humidity: 31%
Pressure (altimeter): 29.92 in. Hg (1013 hPa)
ob: KSDM 231253Z AUTO 14007KT 10SM CLR 16/M01 A2992 RMK AO2 SLP126 T01611006
cycle: 13

Station Type Date Time Source
KSDM TAF UTC NOAA

Error!

Example: see airport list